KNRB/NRB METAR and TAF weather

Enter ICAO airport designator
Station Type Date Time Source
KNRB METAR 2021/03/01 20:52 UTC NOAA

KNRB 012052Z 25008KT 10SM FEW020 SCT090 OVC220 29/16 A2997 RMK AO2 SLP147 T02940161 56020


Station Type Date Time Source
KNRB Decoded METAR 2021/03/01 20:52 UTC NOAA

MAYPORT NAVAL AIR FACILITY, FL, United States (KNRB) 30-24N 81-25W 4M
Mar 01, 2021 - 03:52 PM EST / 2021.03.01 2052 UTC
Wind: from the WSW (250 degrees) at 9 MPH (8 KT):0
Visibility: 10 mile(s):0
Sky conditions: overcast
Temperature: 84.9 F (29.4 C)
Dew Point: 61.0 F (16.1 C)
Relative Humidity: 44%
Pressure (altimeter): 29.97 in. Hg (1014 hPa)
Pressure tendency: 0.06 inches (2.0 hPa) lower than three hours ago
ob: KNRB 012052Z 25008KT 10SM FEW020 SCT090 OVC220 29/16 A2997 RMK AO2 SLP147 T02940161 56020
cycle: 21

Station Type Date Time Source
KNRB TAF 2021/03/01 15:09 UTC NOAA

TAF TAF KNRB 0115/0215 24007KT 9999 SCT011 BKN250 QNH3000INS
BECMG 0117/0119 24012G20KT 9999 VCSH BKN025 OVC040 QNH2995INS
TEMPO 0119/0122 26015G25KT 8000 -SHRA BKN015
BECMG 0123/0201 01008KT 9999 VCSH SCT020 BKN035 OVC060 QNH3000INS
TEMPO 0201/0206 6000 SHRA BKN010
BECMG 0208/0210 03015G25KT 9999 BKN010 OVC035 QNH3006INS T28/0118Z T14/0113Z FN00235

Example: see airport list